Time;durP1;ratioP1;P1;durP2;ratioP2;P2;SDS_P1;SDS_P2;PMS_P1;PMS_P2;Temp;Humidity;BMP_temperature;BMP_pressure;BME280_temperature;BME280_humidity;BME280_pressure;Samples;Min_cycle;Max_cycle;Signal;HPM_P1;HPM_P2
2022/10/24 00:02:34;;;;;;;4.38;2.00;;;;;15.50;99819.00;;;;10332948;28;20279;-77
2022/10/24 00:07:36;;;;;;;5.15;1.80;;;;;15.60;99811.00;;;;10261582;28;20268;-77
2022/10/24 00:12:38;;;;;;;2.28;1.50;;;;;15.70;99810.00;;;;10315758;28;20682;-78
2022/10/24 00:17:40;;;;;;;5.32;1.63;;;;;15.80;99804.00;;;;10332662;28;20616;-77
2022/10/24 00:22:42;;;;;;;3.47;1.67;;;;;16.00;99806.00;;;;10273672;28;20196;-78
2022/10/24 00:27:44;;;;;;;5.90;2.60;;;;;16.00;99803.00;;;;10316146;28;20683;-78
2022/10/24 00:32:46;;;;;;;7.50;1.98;;;;;16.00;99801.00;;;;10294075;28;20232;-78
2022/10/24 00:37:48;;;;;;;4.10;1.50;;;;;16.10;99806.00;;;;10309426;28;20242;-77
2022/10/24 00:42:50;;;;;;;5.00;1.80;;;;;16.10;99809.00;;;;10309384;28;20201;-78
2022/10/24 00:47:52;;;;;;;2.03;1.50;;;;;16.00;99805.00;;;;10307423;28;20215;-77
2022/10/24 00:52:54;;;;;;;5.15;1.42;;;;;16.10;99804.00;;;;10322019;28;20222;-78
2022/10/24 00:58:00;;;;;;;3.92;1.48;;;;;16.00;99811.00;;;;10271755;28;20255;-77
2022/10/24 01:03:02;;;;;;;3.33;1.42;;;;;15.80;99812.00;;;;10289176;28;20211;-76
2022/10/24 01:08:07;;;;;;;3.42;1.45;;;;;15.90;99813.00;;;;10325478;28;20217;-76
2022/10/24 01:13:23;;;;;;;3.00;1.40;;;;;15.80;99804.00;;;;10308628;28;20215;-76
2022/10/24 01:18:35;;;;;;;4.57;1.23;;;;;15.90;99811.00;;;;10304830;28;20189;-77
2022/10/24 01:23:36;;;;;;;2.20;1.35;;;;;15.70;99808.00;;;;10312198;28;20190;-77
2022/10/24 01:28:52;;;;;;;5.25;1.38;;;;;15.70;99803.00;;;;10289912;28;20197;-77
2022/10/24 01:34:09;;;;;;;5.57;1.17;;;;;15.70;99819.00;;;;10291928;28;20202;-76
2022/10/24 01:39:17;;;;;;;5.80;1.73;;;;;15.70;99819.00;;;;10297279;28;20200;-76
2022/10/24 01:44:27;;;;;;;6.55;1.48;;;;;15.80;99824.00;;;;10323114;28;20231;-76
2022/10/24 01:49:38;;;;;;;3.78;1.10;;;;;15.90;99828.00;;;;10304512;28;20204;-77
2022/10/24 01:54:42;;;;;;;4.80;1.35;;;;;15.90;99823.00;;;;10289613;28;20259;-76
2022/10/24 01:59:46;;;;;;;4.00;1.40;;;;;15.90;99827.00;;;;10334604;28;20207;-77
2022/10/24 02:04:59;;;;;;;2.55;1.13;;;;;15.90;99825.00;;;;10298789;28;20307;-76
2022/10/24 02:10:06;;;;;;;5.60;1.33;;;;;15.90;99826.00;;;;10315701;28;20200;-77
2022/10/24 02:15:25;;;;;;;3.45;1.00;;;;;16.00;99833.00;;;;10338962;28;20965;-76
2022/10/24 02:20:34;;;;;;;3.33;1.33;;;;;15.90;99827.00;;;;10312268;28;20196;-76
2022/10/24 02:25:41;;;;;;;3.60;1.25;;;;;15.70;99828.00;;;;10310251;28;20207;-77
2022/10/24 02:30:49;;;;;;;5.00;1.40;;;;;15.70;99848.00;;;;10305076;28;20204;-76
2022/10/24 02:35:52;;;;;;;3.38;1.20;;;;;15.70;99833.00;;;;10295443;28;20594;-76
2022/10/24 02:40:56;;;;;;;3.08;2.10;;;;;15.70;99827.00;;;;10314628;28;20272;-77
2022/10/24 02:45:58;;;;;;;2.10;1.38;;;;;15.80;99824.00;;;;10300191;28;20209;-77
2022/10/24 02:51:01;;;;;;;4.25;1.23;;;;;15.90;99825.00;;;;10254768;28;20209;-76
2022/10/24 02:56:03;;;;;;;6.22;2.28;;;;;16.00;99832.00;;;;10325587;28;20208;-77
2022/10/24 03:01:05;;;;;;;5.53;1.55;;;;;16.00;99805.00;;;;10329914;28;20663;-76
2022/10/24 03:06:07;;;;;;;7.97;1.63;;;;;15.90;99823.00;;;;10287027;28;20676;-76
2022/10/24 03:11:09;;;;;;;3.85;1.00;;;;;15.90;99820.00;;;;10290618;28;20196;-77
2022/10/24 03:16:11;;;;;;;2.92;1.30;;;;;16.00;99817.00;;;;10319447;28;20670;-77
2022/10/24 03:21:15;;;;;;;7.05;1.65;;;;;16.10;99828.00;;;;10318561;28;20714;-77
2022/10/24 03:26:17;;;;;;;5.60;1.30;;;;;16.20;99819.00;;;;10285577;28;20219;-77
2022/10/24 03:31:19;;;;;;;3.28;1.20;;;;;16.10;99820.00;;;;10293886;28;20200;-77
2022/10/24 03:36:21;;;;;;;5.82;1.42;;;;;16.00;99821.00;;;;10272726;28;20192;-76
2022/10/24 03:41:23;;;;;;;2.50;1.20;;;;;15.80;99820.00;;;;10308729;28;20276;-76
2022/10/24 03:46:25;;;;;;;3.65;1.30;;;;;15.80;99804.00;;;;10270964;28;20224;-76
2022/10/24 03:51:27;;;;;;;7.20;1.25;;;;;15.90;99802.00;;;;10303562;28;20291;-77
2022/10/24 03:56:28;;;;;;;8.27;1.30;;;;;15.90;99801.00;;;;10283413;28;20202;-76
2022/10/24 04:01:30;;;;;;;6.82;1.35;;;;;15.90;99804.00;;;;10322228;28;20199;-77
2022/10/24 04:06:32;;;;;;;4.82;1.30;;;;;15.80;99808.00;;;;10291470;28;20212;-77
2022/10/24 04:11:37;;;;;;;7.10;1.40;;;;;15.80;99824.00;;;;10290204;28;20278;-77
2022/10/24 04:16:39;;;;;;;10.02;1.42;;;;;15.90;99821.00;;;;10301584;28;20199;-77
2022/10/24 04:21:41;;;;;;;4.78;1.58;;;;;16.00;99824.00;;;;10300188;28;20188;-76
2022/10/24 04:26:43;;;;;;;3.72;1.45;;;;;16.00;99818.00;;;;10305923;28;20246;-77
2022/10/24 04:31:45;;;;;;;5.63;3.05;;;;;15.90;99830.00;;;;10280626;28;20184;-77
2022/10/24 04:36:47;;;;;;;7.70;1.50;;;;;15.80;99835.00;;;;10262474;28;20259;-77
2022/10/24 04:41:49;;;;;;;6.20;1.55;;;;;15.90;99825.00;;;;10313606;28;20295;-76
2022/10/24 04:46:51;;;;;;;5.20;1.77;;;;;16.00;99840.00;;;;10318385;28;20208;-76
2022/10/24 04:51:52;;;;;;;5.05;1.38;;;;;15.90;99834.00;;;;10288799;28;20200;-77
2022/10/24 04:56:54;;;;;;;7.25;1.20;;;;;15.80;99828.00;;;;10300654;28;20215;-77
2022/10/24 05:01:56;;;;;;;7.65;1.73;;;;;15.80;99841.00;;;;10298843;28;20196;-77
2022/10/24 05:06:58;;;;;;;8.90;1.88;;;;;15.80;99831.00;;;;10312916;28;20219;-76
2022/10/24 05:12:01;;;;;;;6.07;1.48;;;;;15.90;99842.00;;;;10280467;28;20222;-77
2022/10/24 05:17:03;;;;;;;7.43;2.67;;;;;16.00;99857.00;;;;10295728;28;20280;-76
2022/10/24 05:22:04;;;;;;;12.93;1.73;;;;;16.00;99854.00;;;;10300792;28;20196;-76
2022/10/24 05:27:11;;;;;;;10.15;1.85;;;;;15.90;99859.00;;;;10307593;28;20200;-76
2022/10/24 05:32:13;;;;;;;10.23;2.00;;;;;15.80;99859.00;;;;10285194;28;20206;-77
2022/10/24 05:37:15;;;;;;;5.18;1.30;;;;;15.90;99873.00;;;;10295231;28;20192;-76
2022/10/24 05:42:17;;;;;;;7.18;1.38;;;;;16.00;99882.00;;;;10310688;28;20200;-77
2022/10/24 05:47:19;;;;;;;10.15;1.55;;;;;16.10;99872.00;;;;10295522;28;20239;-77
2022/10/24 05:52:22;;;;;;;13.30;2.13;;;;;16.10;99867.00;;;;10297762;28;20231;-76
2022/10/24 05:57:24;;;;;;;9.02;1.50;;;;;16.10;99868.00;;;;10300011;28;20218;-76
2022/10/24 06:02:26;;;;;;;8.55;1.92;;;;;16.00;99884.00;;;;10313982;28;20197;-77
2022/10/24 06:07:30;;;;;;;7.78;1.60;;;;;16.00;99876.00;;;;10288596;28;20212;-76
2022/10/24 06:12:32;;;;;;;9.02;1.55;;;;;16.10;99877.00;;;;10301127;28;20201;-76
2022/10/24 06:17:34;;;;;;;11.57;2.20;;;;;16.20;99901.00;;;;10286755;28;20275;-77
2022/10/24 06:22:36;;;;;;;7.30;1.33;;;;;16.20;99909.00;;;;10326858;28;20223;-76
2022/10/24 06:27:39;;;;;;;7.78;1.80;;;;;16.20;99914.00;;;;10301733;28;20208;-76
2022/10/24 06:32:40;;;;;;;12.60;2.22;;;;;16.00;99942.00;;;;10296792;28;20193;-77
2022/10/24 06:37:45;;;;;;;9.43;1.92;;;;;15.40;99931.00;;;;10270043;28;20193;-77
2022/10/24 06:42:49;;;;;;;11.05;2.10;;;;;15.00;99947.00;;;;10295906;28;20192;-76
2022/10/24 06:47:51;;;;;;;10.27;2.00;;;;;14.90;99958.00;;;;10294081;28;20216;-76
2022/10/24 06:52:55;;;;;;;9.52;1.38;;;;;14.90;99955.00;;;;10311160;28;20659;-76
2022/10/24 06:57:58;;;;;;;5.45;1.48;;;;;14.70;99963.00;;;;10306476;28;20196;-76
2022/10/24 07:03:00;;;;;;;9.73;1.85;;;;;14.70;99968.00;;;;10328475;28;20219;-76
2022/10/24 07:08:02;;;;;;;10.75;2.05;;;;;14.60;99970.00;;;;10334399;28;20226;-76
2022/10/24 07:13:04;;;;;;;8.67;2.30;;;;;14.60;99969.00;;;;10293637;28;20275;-76
2022/10/24 07:18:06;;;;;;;9.60;1.70;;;;;14.90;99978.00;;;;10285885;28;20181;-76
2022/10/24 07:23:08;;;;;;;7.20;2.10;;;;;15.20;99983.00;;;;10317030;28;20191;-76
2022/10/24 07:28:11;;;;;;;9.97;2.20;;;;;15.60;99990.00;;;;10285911;28;20225;-76
2022/10/24 07:33:15;;;;;;;7.75;1.80;;;;;15.80;100001.00;;;;10301279;28;20235;-76
2022/10/24 07:38:17;;;;;;;15.05;2.88;;;;;16.10;100015.00;;;;10297482;28;20212;-76
2022/10/24 07:43:19;;;;;;;11.43;2.22;;;;;16.30;100033.00;;;;10269177;28;20211;-76
2022/10/24 07:48:21;;;;;;;10.43;1.98;;;;;16.50;100042.00;;;;10304168;28;20282;-76
2022/10/24 07:53:26;;;;;;;5.80;1.80;;;;;16.60;100047.00;;;;10292838;28;20200;-76
2022/10/24 07:58:28;;;;;;;13.60;2.90;;;;;16.60;100055.00;;;;10285290;28;20200;-76
2022/10/24 08:03:30;;;;;;;6.22;2.15;;;;;16.60;100055.00;;;;10287765;28;20188;-77
2022/10/24 08:08:32;;;;;;;9.40;3.08;;;;;16.70;100069.00;;;;10287474;28;20219;-76
2022/10/24 08:13:38;;;;;;;11.40;3.25;;;;;16.90;100061.00;;;;10272163;28;20681;-76
2022/10/24 08:18:41;;;;;;;7.57;1.90;;;;;17.30;100087.00;;;;10304834;28;20184;-76
2022/10/24 08:23:45;;;;;;;8.23;1.80;;;;;17.70;100081.00;;;;10311714;28;20271;-76
2022/10/24 08:28:47;;;;;;;11.75;2.10;;;;;18.00;100103.00;;;;10280567;28;20229;-76
2022/10/24 08:33:54;;;;;;;8.73;1.92;;;;;17.90;100091.00;;;;10323988;28;20192;-76
2022/10/24 08:38:56;;;;;;;7.22;1.75;;;;;18.00;100089.00;;;;10283522;28;20192;-76
2022/10/24 08:44:01;;;;;;;9.48;2.35;;;;;18.50;100092.00;;;;10286013;28;20646;-76
2022/10/24 08:49:19;;;;;;;9.55;2.15;;;;;18.80;100110.00;;;;10285902;28;20778;-76
2022/10/24 08:54:26;;;;;;;8.77;2.08;;;;;18.60;100101.00;;;;10310711;28;20211;-76
2022/10/24 08:59:32;;;;;;;5.93;1.77;;;;;19.00;100103.00;;;;10313540;28;20226;-76
2022/10/24 09:04:39;;;;;;;9.73;2.53;;;;;19.10;100105.00;;;;10303337;28;20216;-76
2022/10/24 09:09:46;;;;;;;9.38;2.03;;;;;19.20;100110.00;;;;10269557;28;20579;-76
2022/10/24 09:14:56;;;;;;;8.10;1.70;;;;;19.10;100104.00;;;;10300965;28;20670;-76
2022/10/24 09:20:24;;;;;;;10.05;2.50;;;;;18.80;100115.00;;;;10295780;28;20207;-76
2022/10/24 09:25:33;;;;;;;9.70;1.77;;;;;19.10;100111.00;;;;10291163;28;20232;-76
2022/10/24 09:30:36;;;;;;;7.97;1.83;;;;;19.20;100129.00;;;;10317570;28;20396;-76
2022/10/24 09:35:38;;;;;;;9.50;2.75;;;;;20.00;100135.00;;;;10284876;28;20642;-76
2022/10/24 09:40:40;;;;;;;12.95;2.40;;;;;20.40;100120.00;;;;10314992;28;20192;-76
2022/10/24 09:45:45;;;;;;;13.73;2.65;;;;;20.50;100147.00;;;;10293405;28;20291;-76
2022/10/24 09:50:49;;;;;;;14.23;2.47;;;;;20.60;100143.00;;;;10286838;28;20711;-76
2022/10/24 09:55:55;;;;;;;8.13;2.47;;;;;20.30;100149.00;;;;10294801;28;20283;-76
2022/10/24 10:00:59;;;;;;;8.00;1.73;;;;;20.20;100167.00;;;;10326255;28;20192;-76
2022/10/24 10:06:14;;;;;;;6.00;1.40;;;;;19.90;100178.00;;;;10308676;28;20224;-76
2022/10/24 10:11:25;;;;;;;7.80;2.50;;;;;19.80;100168.00;;;;10300705;28;20663;-76
2022/10/24 10:16:35;;;;;;;12.35;2.03;;;;;20.20;100184.00;;;;10279039;28;20195;-76
2022/10/24 10:22:20;;;;;;;7.88;2.25;;;;;19.80;100189.00;;;;10286760;28;20200;-76
2022/10/24 10:27:37;;;;;;;10.73;2.30;;;;;20.50;100189.00;;;;10277644;28;20254;-76
2022/10/24 10:33:07;;;;;;;12.13;2.80;;;;;21.00;100187.00;;;;10286063;28;20227;-77
2022/10/24 10:38:28;;;;;;;10.35;2.80;;;;;21.10;100199.00;;;;10332137;28;20195;-76
2022/10/24 10:43:39;;;;;;;9.15;3.58;;;;;21.10;100200.00;;;;10328768;28;20218;-76
2022/10/24 10:48:46;;;;;;;7.55;2.25;;;;;21.60;100209.00;;;;10281519;28;20208;-76
2022/10/24 10:54:00;;;;;;;8.05;1.98;;;;;22.10;100196.00;;;;10289022;28;20260;-76
2022/10/24 10:59:33;;;;;;;7.88;1.90;;;;;22.60;100185.00;;;;10298558;28;20206;-76
2022/10/24 11:04:49;;;;;;;5.50;1.58;;;;;23.20;100193.00;;;;10320595;28;20208;-76
2022/10/24 11:10:03;;;;;;;6.22;1.55;;;;;22.70;100186.00;;;;10342093;28;20211;-76
2022/10/24 11:15:28;;;;;;;9.52;2.03;;;;;21.50;100203.00;;;;10307862;28;20196;-76
2022/10/24 11:20:42;;;;;;;8.43;1.42;;;;;20.30;100206.00;;;;10319173;28;20192;-76
2022/10/24 11:26:02;;;;;;;7.13;1.73;;;;;19.50;100224.00;;;;10315395;28;20204;-76
2022/10/24 11:31:16;;;;;;;8.77;1.80;;;;;19.80;100220.00;;;;10307799;28;20206;-76
2022/10/24 11:36:29;;;;;;;3.28;1.05;;;;;20.50;100229.00;;;;10309735;28;20227;-76
2022/10/24 11:41:39;;;;;;;6.70;1.17;;;;;20.10;100243.00;;;;10283243;28;20192;-76
2022/10/24 11:46:47;;;;;;;7.45;1.60;;;;;19.50;100251.00;;;;10268321;28;20212;-76
2022/10/24 11:51:56;;;;;;;7.00;1.27;;;;;19.50;100249.00;;;;10307072;28;20247;-76
2022/10/24 11:57:05;;;;;;;5.10;1.60;;;;;18.90;100250.00;;;;10275446;28;20200;-76
2022/10/24 12:02:32;;;;;;;5.40;2.08;;;;;19.10;100248.00;;;;10290133;28;20224;-76
2022/10/24 12:08:11;;;;;;;9.20;2.25;;;;;18.60;100276.00;;;;10283563;28;20694;-76
2022/10/24 12:13:28;;;;;;;8.75;1.88;;;;;18.10;100280.00;;;;10306187;28;20207;-76
2022/10/24 12:18:33;;;;;;;7.30;1.52;;;;;17.90;100283.00;;;;10307544;28;20196;-76
2022/10/24 12:23:35;;;;;;;8.98;1.77;;;;;18.20;100281.00;;;;10300826;28;20611;-76
2022/10/24 12:28:37;;;;;;;7.05;1.08;;;;;18.70;100282.00;;;;10302286;28;20201;-76
2022/10/24 12:33:40;;;;;;;5.55;1.33;;;;;19.10;100275.00;;;;10271935;28;20196;-76
2022/10/24 12:38:42;;;;;;;4.95;1.30;;;;;18.80;100275.00;;;;10280823;28;20288;-76
2022/10/24 12:43:47;;;;;;;5.75;1.90;;;;;18.40;100274.00;;;;10312304;28;20188;-76
2022/10/24 12:48:56;;;;;;;8.75;1.67;;;;;18.30;100280.00;;;;10327644;28;20212;-76
2022/10/24 12:54:11;;;;;;;4.28;1.23;;;;;18.20;100281.00;;;;10319905;28;20211;-76
2022/10/24 12:59:28;;;;;;;4.47;1.50;;;;;18.30;100287.00;;;;10329502;28;20202;-76
2022/10/24 13:04:39;;;;;;;8.65;1.90;;;;;17.50;100282.00;;;;10323565;28;20737;-76
2022/10/24 13:09:53;;;;;;;6.35;1.60;;;;;17.10;100288.00;;;;10310868;28;20302;-76
2022/10/24 13:15:22;;;;;;;9.75;1.83;;;;;17.30;100278.00;;;;10303435;28;20287;-76
2022/10/24 13:20:28;;;;;;;8.15;2.33;;;;;17.70;100269.00;;;;10320252;28;20311;-76
2022/10/24 13:25:35;;;;;;;7.95;1.88;;;;;18.10;100266.00;;;;10317478;28;20210;-76
2022/10/24 13:30:36;;;;;;;7.13;2.13;;;;;18.30;100269.00;;;;10311727;28;20187;-76
2022/10/24 13:35:38;;;;;;;5.28;1.40;;;;;18.50;100278.00;;;;10318225;28;20199;-77
2022/10/24 13:40:43;;;;;;;3.40;1.30;;;;;18.60;100276.00;;;;10310055;28;20812;-76
2022/10/24 13:45:56;;;;;;;3.85;1.42;;;;;18.50;100269.00;;;;10277400;28;20216;-76
2022/10/24 13:51:13;;;;;;;5.00;1.30;;;;;18.80;100271.00;;;;10283938;28;20678;-76
2022/10/24 13:56:16;;;;;;;5.25;1.98;;;;;18.70;100272.00;;;;10290874;28;20200;-76
2022/10/24 14:01:27;;;;;;;6.97;1.20;;;;;18.50;100272.00;;;;10317157;28;20278;-76
2022/10/24 14:06:32;;;;;;;10.25;1.50;;;;;19.30;100265.00;;;;10301179;28;20228;-76
2022/10/24 14:11:39;;;;;;;5.65;1.35;;;;;19.80;100275.00;;;;10304204;28;20196;-76
2022/10/24 14:16:41;;;;;;;2.47;0.73;;;;;21.20;100237.00;;;;10283597;28;20243;-76
2022/10/24 14:21:47;;;;;;;3.78;1.38;;;;;20.70;100271.00;;;;10304247;28;20242;-77
2022/10/24 14:26:52;;;;;;;5.57;1.08;;;;;19.80;100265.00;;;;10319742;28;20204;-76
2022/10/24 14:32:02;;;;;;;5.97;2.17;;;;;19.30;100272.00;;;;10299913;28;20227;-76
2022/10/24 14:37:11;;;;;;;3.40;1.10;;;;;19.60;100265.00;;;;10309618;28;20184;-76
2022/10/24 14:42:17;;;;;;;6.45;1.83;;;;;20.30;100217.00;;;;10303553;28;20228;-76
2022/10/24 14:47:28;;;;;;;8.13;1.40;;;;;19.10;100277.00;;;;10314274;28;20210;-76
2022/10/24 14:52:37;;;;;;;4.10;1.58;;;;;19.90;100287.00;;;;10287599;28;20619;-76
2022/10/24 14:57:47;;;;;;;4.28;1.77;;;;;19.00;100289.00;;;;10326803;28;20215;-76
2022/10/24 15:02:52;;;;;;;7.00;1.58;;;;;18.80;100286.00;;;;10300689;28;20196;-76
2022/10/24 15:08:01;;;;;;;6.15;1.40;;;;;18.50;100295.00;;;;10326348;28;20223;-76
2022/10/24 15:13:24;;;;;;;11.88;2.47;;;;;17.90;100287.00;;;;10281054;28;20239;-76
2022/10/24 15:18:41;;;;;;;8.82;1.60;;;;;17.90;100302.00;;;;10319837;28;20655;-76
2022/10/24 15:23:48;;;;;;;9.15;1.80;;;;;18.20;100295.00;;;;10271240;28;20546;-76
2022/10/24 15:29:06;;;;;;;6.15;1.75;;;;;17.00;100302.00;;;;10304595;28;20311;-76
2022/10/24 15:34:14;;;;;;;4.43;1.38;;;;;16.40;100299.00;;;;10314459;28;20697;-75
2022/10/24 15:39:19;;;;;;;5.25;1.65;;;;;16.10;100300.00;;;;10326099;28;20244;-76
2022/10/24 15:44:29;;;;;;;5.43;1.42;;;;;15.90;100291.00;;;;10292395;28;20205;-76
2022/10/24 15:49:33;;;;;;;8.73;1.25;;;;;15.90;100290.00;;;;10269790;28;20228;-76
2022/10/24 15:54:35;;;;;;;6.20;1.40;;;;;16.00;100305.00;;;;10290316;28;20541;-76
2022/10/24 15:59:37;;;;;;;5.20;1.65;;;;;16.10;100312.00;;;;10278113;28;20193;-76
2022/10/24 16:04:39;;;;;;;9.18;1.50;;;;;15.90;100311.00;;;;10301241;28;20265;-76
2022/10/24 16:09:41;;;;;;;7.25;1.92;;;;;15.60;100315.00;;;;10280442;28;20220;-76
2022/10/24 16:14:43;;;;;;;11.82;2.03;;;;;15.30;100314.00;;;;10294124;28;20199;-76
2022/10/24 16:19:45;;;;;;;11.57;1.95;;;;;15.20;100311.00;;;;10291147;28;20222;-76
2022/10/24 16:24:47;;;;;;;9.15;2.10;;;;;15.00;100297.00;;;;10272523;28;20852;-76
2022/10/24 16:29:49;;;;;;;9.32;2.05;;;;;14.90;100314.00;;;;10294335;28;20216;-76
2022/10/24 16:34:51;;;;;;;4.90;1.75;;;;;14.90;100317.00;;;;10284228;28;20200;-76
2022/10/24 16:39:53;;;;;;;8.57;2.03;;;;;14.80;100323.00;;;;10281036;28;20836;-76
2022/10/24 16:44:55;;;;;;;8.57;1.80;;;;;14.70;100319.00;;;;10296840;28;20242;-76
2022/10/24 16:49:58;;;;;;;7.70;1.87;;;;;14.50;100324.00;;;;10342317;28;20226;-76
2022/10/24 16:55:01;;;;;;;6.13;1.67;;;;;14.40;100330.00;;;;10316304;28;20208;-76
2022/10/24 17:00:05;;;;;;;6.32;1.73;;;;;14.40;100333.00;;;;10324049;28;20268;-76
2022/10/24 17:05:07;;;;;;;6.37;1.83;;;;;14.40;100359.00;;;;10283143;28;20224;-76
2022/10/24 17:10:10;;;;;;;7.97;2.07;;;;;14.60;100358.00;;;;10286384;28;20615;-76
2022/10/24 17:15:13;;;;;;;10.93;1.83;;;;;14.70;100361.00;;;;10308854;28;20207;-76
2022/10/24 17:20:20;;;;;;;10.97;2.87;;;;;14.90;100375.00;;;;10324644;28;20203;-76
2022/10/24 17:25:24;;;;;;;8.17;1.93;;;;;15.00;100383.00;;;;10298848;28;20256;-76
2022/10/24 17:30:28;;;;;;;8.20;2.28;;;;;14.80;100388.00;;;;10294355;28;20260;-76
2022/10/24 17:35:31;;;;;;;11.73;2.80;;;;;14.70;100427.00;;;;10310369;28;20698;-76
2022/10/24 17:40:44;;;;;;;3.73;1.27;;;;;14.60;100451.00;;;;10306332;28;20208;-77
2022/10/24 17:45:47;;;;;;;4.20;1.27;;;;;14.00;100449.00;;;;10302512;28;20243;-76
2022/10/24 17:50:50;;;;;;;4.60;2.03;;;;;13.70;100452.00;;;;10321421;28;20564;-75
2022/10/24 17:55:52;;;;;;;8.90;4.33;;;;;13.40;100452.00;;;;10296907;28;20212;-74
2022/10/24 18:00:54;;;;;;;5.57;2.97;;;;;13.40;100455.00;;;;10298925;28;20189;-74
2022/10/24 18:06:00;;;;;;;3.10;0.97;;;;;13.30;100455.00;;;;10302951;28;20209;-74
2022/10/24 18:11:04;;;;;;;4.70;2.53;;;;;13.30;100456.00;;;;10313430;28;20199;-74
2022/10/24 18:16:12;;;;;;;5.03;2.53;;;;;13.20;100460.00;;;;10269593;28;20252;-75
2022/10/24 18:21:18;;;;;;;3.00;1.43;;;;;13.20;100472.00;;;;10280128;28;20209;-74
2022/10/24 18:26:25;;;;;;;3.63;1.23;;;;;13.30;100457.00;;;;10324221;28;20192;-74
2022/10/24 18:31:29;;;;;;;2.43;1.50;;;;;13.30;100476.00;;;;10310630;28;20193;-74
2022/10/24 18:36:31;;;;;;;1.97;1.40;;;;;13.20;100466.00;;;;10311166;28;20197;-74
2022/10/24 18:41:34;;;;;;;3.00;1.53;;;;;13.20;100460.00;;;;10287386;28;20833;-74
2022/10/24 18:46:37;;;;;;;4.93;1.90;;;;;13.20;100466.00;;;;10308869;28;20231;-74
2022/10/24 18:51:49;;;;;;;2.10;1.40;;;;;13.30;100474.00;;;;10308184;28;20201;-74
2022/10/24 18:56:51;;;;;;;14.73;5.87;;;;;13.30;100480.00;;;;10297323;28;20232;-74
2022/10/24 19:02:13;;;;;;;9.23;3.50;;;;;13.40;100482.00;;;;10322245;28;20201;-74
2022/10/24 19:07:17;;;;;;;9.20;5.47;;;;;13.40;100481.00;;;;10294592;28;20308;-74
2022/10/24 19:12:19;;;;;;;9.87;2.53;;;;;13.40;100479.00;;;;10323378;28;20200;-74
2022/10/24 19:17:22;;;;;;;6.40;2.80;;;;;13.50;100480.00;;;;10318307;28;20199;-74
2022/10/24 19:22:25;;;;;;;5.60;2.83;;;;;13.40;100477.00;;;;10273066;28;20278;-74
2022/10/24 19:27:27;;;;;;;11.17;2.70;;;;;13.30;100475.00;;;;10323158;28;20217;-74
2022/10/24 19:32:28;;;;;;;5.97;2.00;;;;;13.10;100488.00;;;;10304550;28;20222;-74
2022/10/24 19:37:30;;;;;;;5.87;2.37;;;;;13.00;100492.00;;;;10322697;28;20211;-74
2022/10/24 19:42:33;;;;;;;8.43;2.00;;;;;13.00;100493.00;;;;10320710;28;20200;-74
2022/10/24 19:47:35;;;;;;;5.80;2.10;;;;;13.00;100495.00;;;;10297263;28;20204;-74
2022/10/24 19:52:38;;;;;;;6.10;2.10;;;;;13.00;100506.00;;;;10262114;28;20243;-74
2022/10/24 19:57:40;;;;;;;5.43;2.63;;;;;13.20;100510.00;;;;10291062;28;20195;-74
2022/10/24 20:02:42;;;;;;;7.17;3.47;;;;;13.30;100509.00;;;;10282879;28;20204;-75
2022/10/24 20:07:44;;;;;;;7.37;2.10;;;;;13.40;100496.00;;;;10310704;28;20216;-74
2022/10/24 20:12:46;;;;;;;6.93;2.90;;;;;13.50;100499.00;;;;10307511;28;20193;-74
2022/10/24 20:17:48;;;;;;;5.53;1.90;;;;;13.50;100494.00;;;;10298678;28;20200;-74
2022/10/24 20:22:50;;;;;;;9.67;2.70;;;;;13.50;100489.00;;;;10310068;28;20209;-74
2022/10/24 20:27:52;;;;;;;13.67;3.30;;;;;13.40;100498.00;;;;10312435;28;20204;-74
2022/10/24 20:32:54;;;;;;;10.03;2.63;;;;;13.30;100502.00;;;;10294286;28;20200;-73
2022/10/24 20:37:55;;;;;;;11.97;2.60;;;;;13.30;100500.00;;;;10305000;28;20693;-74
2022/10/24 20:42:57;;;;;;;7.73;2.43;;;;;13.30;100524.00;;;;10284529;28;20193;-74
2022/10/24 20:48:00;;;;;;;10.07;2.40;;;;;13.40;100535.00;;;;10308531;28;20208;-73
2022/10/24 20:53:02;;;;;;;6.30;2.50;;;;;13.40;100532.00;;;;10302973;28;20204;-74
2022/10/24 20:58:04;;;;;;;8.83;1.70;;;;;13.40;100533.00;;;;10319161;28;20181;-74
2022/10/24 21:03:10;;;;;;;6.27;1.80;;;;;13.40;100551.00;;;;10290173;28;20188;-74
2022/10/24 21:08:12;;;;;;;6.87;1.87;;;;;13.40;100545.00;;;;10323209;28;20651;-74
2022/10/24 21:13:14;;;;;;;9.17;1.60;;;;;13.40;100552.00;;;;10319882;28;20206;-74
2022/10/24 21:18:16;;;;;;;11.73;2.23;;;;;13.40;100561.00;;;;10296653;28;20181;-74
2022/10/24 21:23:18;;;;;;;9.43;2.17;;;;;13.40;100563.00;;;;10311490;28;20200;-74
2022/10/24 21:28:20;;;;;;;6.80;2.13;;;;;13.40;100566.00;;;;10320092;28;20219;-74
2022/10/24 21:33:22;;;;;;;8.63;1.90;;;;;13.40;100575.00;;;;10271812;28;20200;-74
2022/10/24 21:38:24;;;;;;;8.20;2.00;;;;;13.40;100579.00;;;;10287267;28;20200;-74
2022/10/24 21:43:26;;;;;;;4.67;1.70;;;;;13.50;100578.00;;;;10315922;28;20310;-74
2022/10/24 21:48:30;;;;;;;8.97;1.83;;;;;13.40;100575.00;;;;10312841;28;20209;-74
2022/10/24 21:53:49;;;;;;;12.27;1.93;;;;;13.40;100587.00;;;;10333156;28;20611;-74
2022/10/24 21:59:00;;;;;;;6.97;1.70;;;;;13.40;100579.00;;;;10297953;28;20571;-74
2022/10/24 22:04:07;;;;;;;5.37;1.80;;;;;13.30;100577.00;;;;10266973;28;20226;-74
2022/10/24 22:09:13;;;;;;;6.63;1.60;;;;;13.30;100604.00;;;;10309495;28;20725;-75
2022/10/24 22:14:15;;;;;;;7.47;1.93;;;;;13.30;100613.00;;;;10298846;28;20196;-75
2022/10/24 22:19:17;;;;;;;8.97;1.87;;;;;13.20;100611.00;;;;10324904;28;20247;-75
2022/10/24 22:24:21;;;;;;;11.13;1.83;;;;;13.10;100623.00;;;;10326451;28;20195;-75
2022/10/24 22:29:23;;;;;;;6.30;2.23;;;;;13.10;100640.00;;;;10319519;28;20205;-74
2022/10/24 22:34:25;;;;;;;7.70;2.47;;;;;13.10;100647.00;;;;10293829;28;20185;-75
2022/10/24 22:39:28;;;;;;;6.40;2.03;;;;;13.10;100649.00;;;;10282295;28;20188;-74
2022/10/24 22:44:30;;;;;;;8.57;1.40;;;;;13.10;100636.00;;;;10301683;28;20281;-75
2022/10/24 22:49:48;;;;;;;5.63;1.47;;;;;13.10;100643.00;;;;10302374;28;20267;-75
2022/10/24 22:54:50;;;;;;;5.33;1.43;;;;;13.10;100649.00;;;;10310568;28;20709;-75
2022/10/24 22:59:52;;;;;;;8.20;1.70;;;;;13.20;100665.00;;;;10308771;28;20550;-75
2022/10/24 23:05:25;;;;;;;7.93;1.53;;;;;13.10;100674.00;;;;10275557;28;20227;-75
2022/10/24 23:10:27;;;;;;;6.27;1.87;;;;;13.10;100682.00;;;;10327570;28;20287;-75
2022/10/24 23:15:29;;;;;;;9.43;1.60;;;;;13.10;100686.00;;;;10297386;28;20223;-75
2022/10/24 23:20:34;;;;;;;7.13;1.70;;;;;13.10;100697.00;;;;10294238;28;20195;-75
2022/10/24 23:25:37;;;;;;;4.73;1.40;;;;;13.00;100696.00;;;;10257889;28;20532;-75
2022/10/24 23:30:39;;;;;;;2.80;1.50;;;;;13.00;100706.00;;;;10283974;28;20242;-75
2022/10/24 23:35:42;;;;;;;5.47;2.30;;;;;13.00;100703.00;;;;10307544;28;20267;-75
2022/10/24 23:40:44;;;;;;;4.90;1.60;;;;;13.00;100717.00;;;;10275904;28;20193;-75
2022/10/24 23:46:03;;;;;;;10.57;1.77;;;;;13.00;100715.00;;;;10283334;28;20651;-75
2022/10/24 23:51:13;;;;;;;5.77;1.60;;;;;12.90;100721.00;;;;10325459;28;20298;-75
2022/10/24 23:56:17;;;;;;;7.10;2.10;;;;;13.00;100722.00;;;;10275087;28;20208;-75
